sensor_id;sensor_type;location;lat;lon;timestamp;pressure;altitude;pressure_sealevel;temperature;humidity
84378;BME280;74567;51.022;5.256;2024-01-30T00:00:33;102470.69;;;7.56;83.18
84378;BME280;74567;51.022;5.256;2024-01-30T00:02:59;102450.44;;;7.45;82.99
84378;BME280;74567;51.022;5.256;2024-01-30T00:05:27;102486.28;;;7.68;83.10
84378;BME280;74567;51.022;5.256;2024-01-30T00:07:53;102474.16;;;7.58;83.30
84378;BME280;74567;51.022;5.256;2024-01-30T00:10:19;102440.41;;;7.47;82.78
84378;BME280;74567;51.022;5.256;2024-01-30T00:12:46;102452.06;;;7.50;82.72
84378;BME280;74567;51.022;5.256;2024-01-30T00:15:17;102423.34;;;7.28;82.91
84378;BME280;74567;51.022;5.256;2024-01-30T00:17:43;102478.63;;;7.59;82.64
84378;BME280;74567;51.022;5.256;2024-01-30T00:20:12;102489.16;;;7.65;82.95
84378;BME280;74567;51.022;5.256;2024-01-30T00:22:55;102465.19;;;7.57;83.08
84378;BME280;74567;51.022;5.256;2024-01-30T00:25:21;102482.69;;;7.67;82.77
84378;BME280;74567;51.022;5.256;2024-01-30T00:27:49;102475.44;;;7.68;82.86
84378;BME280;74567;51.022;5.256;2024-01-30T00:30:32;102463.84;;;7.66;82.79
84378;BME280;74567;51.022;5.256;2024-01-30T00:32:57;102438.44;;;7.51;82.79
84378;BME280;74567;51.022;5.256;2024-01-30T00:35:23;102479.44;;;7.78;82.74
84378;BME280;74567;51.022;5.256;2024-01-30T00:37:48;102448.84;;;7.59;82.84
84378;BME280;74567;51.022;5.256;2024-01-30T00:40:14;102434.00;;;7.50;82.71
84378;BME280;74567;51.022;5.256;2024-01-30T00:42:54;102424.50;;;7.41;82.87
84378;BME280;74567;51.022;5.256;2024-01-30T00:45:20;102479.63;;;7.75;82.81
84378;BME280;74567;51.022;5.256;2024-01-30T00:48:06;102425.50;;;7.39;82.73
84378;BME280;74567;51.022;5.256;2024-01-30T00:50:37;102450.78;;;7.57;82.75
84378;BME280;74567;51.022;5.256;2024-01-30T00:53:06;102485.81;;;7.77;82.65
84378;BME280;74567;51.022;5.256;2024-01-30T00:55:31;102443.75;;;7.53;82.73
84378;BME280;74567;51.022;5.256;2024-01-30T00:58:20;102481.47;;;7.75;82.59
84378;BME280;74567;51.022;5.256;2024-01-30T01:00:45;102444.25;;;7.61;82.58
84378;BME280;74567;51.022;5.256;2024-01-30T01:03:17;102459.22;;;7.68;82.67
84378;BME280;74567;51.022;5.256;2024-01-30T01:05:45;102430.31;;;7.51;82.44
84378;BME280;74567;51.022;5.256;2024-01-30T01:08:11;102442.66;;;7.57;82.25
84378;BME280;74567;51.022;5.256;2024-01-30T01:10:36;102432.94;;;7.53;82.84
84378;BME280;74567;51.022;5.256;2024-01-30T01:13:08;102422.34;;;7.48;82.48
84378;BME280;74567;51.022;5.256;2024-01-30T01:15:41;102403.31;;;7.32;82.78
84378;BME280;74567;51.022;5.256;2024-01-30T01:18:06;102399.81;;;7.30;82.80
84378;BME280;74567;51.022;5.256;2024-01-30T01:20:32;102420.69;;;7.45;82.79
84378;BME280;74567;51.022;5.256;2024-01-30T01:23:00;102442.81;;;7.54;83.21
84378;BME280;74567;51.022;5.256;2024-01-30T01:25:25;102429.91;;;7.41;83.17
84378;BME280;74567;51.022;5.256;2024-01-30T01:27:51;102442.00;;;7.52;83.16
84378;BME280;74567;51.022;5.256;2024-01-30T01:30:20;102439.41;;;7.50;83.31
84378;BME280;74567;51.022;5.256;2024-01-30T01:32:55;102403.53;;;7.28;83.15
84378;BME280;74567;51.022;5.256;2024-01-30T01:35:24;102434.00;;;7.50;82.86
84378;BME280;74567;51.022;5.256;2024-01-30T01:37:54;102417.25;;;7.42;83.17
84378;BME280;74567;51.022;5.256;2024-01-30T01:40:27;102414.88;;;7.36;83.24
84378;BME280;74567;51.022;5.256;2024-01-30T01:42:57;102415.75;;;7.36;83.00
84378;BME280;74567;51.022;5.256;2024-01-30T01:45:23;102391.53;;;7.16;83.50
84378;BME280;74567;51.022;5.256;2024-01-30T01:47:51;102400.09;;;7.24;83.28
84378;BME280;74567;51.022;5.256;2024-01-30T01:50:17;102432.38;;;7.46;83.42
84378;BME280;74567;51.022;5.256;2024-01-30T01:52:49;102418.91;;;7.44;83.04
84378;BME280;74567;51.022;5.256;2024-01-30T01:55:20;102391.34;;;7.19;83.06
84378;BME280;74567;51.022;5.256;2024-01-30T01:57:52;102441.38;;;7.46;83.47
84378;BME280;74567;51.022;5.256;2024-01-30T02:00:27;102433.81;;;7.53;83.42
84378;BME280;74567;51.022;5.256;2024-01-30T02:02:54;102370.00;;;7.32;83.23
84378;BME280;74567;51.022;5.256;2024-01-30T02:05:21;102375.09;;;7.38;82.55
84378;BME280;74567;51.022;5.256;2024-01-30T02:07:56;102380.91;;;7.47;82.46
84378;BME280;74567;51.022;5.256;2024-01-30T02:10:24;102434.16;;;7.82;82.27
84378;BME280;74567;51.022;5.256;2024-01-30T02:12:50;102385.47;;;7.64;81.89
84378;BME280;74567;51.022;5.256;2024-01-30T02:15:35;102377.50;;;7.61;81.65
84378;BME280;74567;51.022;5.256;2024-01-30T02:18:01;102392.06;;;7.76;81.67
84378;BME280;74567;51.022;5.256;2024-01-30T02:20:29;102411.56;;;7.83;81.86
84378;BME280;74567;51.022;5.256;2024-01-30T02:22:58;102437.03;;;7.96;81.77
84378;BME280;74567;51.022;5.256;2024-01-30T02:25:46;102424.56;;;7.93;81.34
84378;BME280;74567;51.022;5.256;2024-01-30T02:28:17;102380.19;;;7.61;81.76
84378;BME280;74567;51.022;5.256;2024-01-30T02:30:46;102387.25;;;7.64;81.51
84378;BME280;74567;51.022;5.256;2024-01-30T02:33:12;102394.59;;;7.62;82.07
84378;BME280;74567;51.022;5.256;2024-01-30T02:35:46;102375.94;;;7.38;82.71
84378;BME280;74567;51.022;5.256;2024-01-30T02:38:26;102405.25;;;7.47;82.44
84378;BME280;74567;51.022;5.256;2024-01-30T02:40:54;102402.44;;;7.32;83.07
84378;BME280;74567;51.022;5.256;2024-01-30T02:43:24;102394.94;;;7.19;83.44
84378;BME280;74567;51.022;5.256;2024-01-30T02:45:50;102398.22;;;7.26;83.94
84378;BME280;74567;51.022;5.256;2024-01-30T02:48:23;102380.72;;;7.16;83.63
84378;BME280;74567;51.022;5.256;2024-01-30T02:50:48;102388.66;;;7.19;83.86
84378;BME280;74567;51.022;5.256;2024-01-30T02:53:14;102356.63;;;6.92;83.74
84378;BME280;74567;51.022;5.256;2024-01-30T02:55:45;102385.28;;;7.14;83.79
84378;BME280;74567;51.022;5.256;2024-01-30T02:58:12;102393.72;;;7.08;84.37
84378;BME280;74567;51.022;5.256;2024-01-30T03:00:38;102373.91;;;7.07;84.17
84378;BME280;74567;51.022;5.256;2024-01-30T03:03:06;102410.66;;;7.30;84.28
84378;BME280;74567;51.022;5.256;2024-01-30T03:05:32;102361.41;;;7.05;84.20
84378;BME280;74567;51.022;5.256;2024-01-30T03:07:57;102377.19;;;7.14;84.47
84378;BME280;74567;51.022;5.256;2024-01-30T03:10:23;102365.13;;;7.21;84.18
84378;BME280;74567;51.022;5.256;2024-01-30T03:12:51;102356.06;;;7.22;84.15
84378;BME280;74567;51.022;5.256;2024-01-30T03:15:26;102368.94;;;7.34;83.73
84378;BME280;74567;51.022;5.256;2024-01-30T03:17:57;102401.13;;;7.58;83.82
84378;BME280;74567;51.022;5.256;2024-01-30T03:20:23;102372.47;;;7.54;83.75
84378;BME280;74567;51.022;5.256;2024-01-30T03:22:49;102378.84;;;7.53;83.39
84378;BME280;74567;51.022;5.256;2024-01-30T03:25:39;102373.88;;;7.43;83.50
84378;BME280;74567;51.022;5.256;2024-01-30T03:28:04;102401.75;;;7.63;83.54
84378;BME280;74567;51.022;5.256;2024-01-30T03:30:36;102382.75;;;7.64;83.26
84378;BME280;74567;51.022;5.256;2024-01-30T03:33:04;102404.97;;;7.71;83.18
84378;BME280;74567;51.022;5.256;2024-01-30T03:35:30;102374.63;;;7.47;83.19
84378;BME280;74567;51.022;5.256;2024-01-30T03:37:57;102373.09;;;7.41;83.96
84378;BME280;74567;51.022;5.256;2024-01-30T03:40:26;102395.53;;;7.43;84.17
84378;BME280;74567;51.022;5.256;2024-01-30T03:42:54;102346.50;;;7.15;84.25
84378;BME280;74567;51.022;5.256;2024-01-30T03:45:25;102405.16;;;7.49;84.69
84378;BME280;74567;51.022;5.256;2024-01-30T03:47:50;102355.09;;;7.23;84.61
84378;BME280;74567;51.022;5.256;2024-01-30T03:50:25;102387.19;;;7.48;84.55
84378;BME280;74567;51.022;5.256;2024-01-30T03:52:53;102398.25;;;7.61;84.16
84378;BME280;74567;51.022;5.256;2024-01-30T03:55:18;102372.00;;;7.45;84.35
84378;BME280;74567;51.022;5.256;2024-01-30T03:57:49;102347.25;;;7.36;84.23
84378;BME280;74567;51.022;5.256;2024-01-30T04:00:23;102365.13;;;7.38;84.82
84378;BME280;74567;51.022;5.256;2024-01-30T04:02:49;102379.00;;;7.50;84.83
84378;BME280;74567;51.022;5.256;2024-01-30T04:05:16;102373.75;;;7.46;84.68
84378;BME280;74567;51.022;5.256;2024-01-30T04:07:42;102399.69;;;7.68;84.99
84378;BME280;74567;51.022;5.256;2024-01-30T04:10:09;102413.22;;;7.85;84.38
84378;BME280;74567;51.022;5.256;2024-01-30T04:12:37;102373.13;;;7.76;83.82
84378;BME280;74567;51.022;5.256;2024-01-30T04:15:06;102390.38;;;7.91;84.16
84378;BME280;74567;51.022;5.256;2024-01-30T04:17:31;102356.53;;;7.82;83.27
84378;BME280;74567;51.022;5.256;2024-01-30T04:19:57;102376.75;;;8.10;83.20
84378;BME280;74567;51.022;5.256;2024-01-30T04:22:23;102394.09;;;8.23;82.66
84378;BME280;74567;51.022;5.256;2024-01-30T04:24:48;102408.25;;;8.28;82.87
84378;BME280;74567;51.022;5.256;2024-01-30T04:27:23;102392.50;;;8.19;83.00
84378;BME280;74567;51.022;5.256;2024-01-30T04:29:51;102387.34;;;8.14;83.29
84378;BME280;74567;51.022;5.256;2024-01-30T04:32:19;102378.81;;;8.22;83.54
84378;BME280;74567;51.022;5.256;2024-01-30T04:34:47;102406.03;;;8.36;83.09
84378;BME280;74567;51.022;5.256;2024-01-30T04:37:13;102354.59;;;8.02;82.85
84378;BME280;74567;51.022;5.256;2024-01-30T04:39:50;102362.66;;;8.03;83.63
84378;BME280;74567;51.022;5.256;2024-01-30T04:42:17;102366.44;;;8.16;83.30
84378;BME280;74567;51.022;5.256;2024-01-30T04:45:02;102393.28;;;8.21;83.50
84378;BME280;74567;51.022;5.256;2024-01-30T04:47:28;102361.63;;;8.06;83.57
84378;BME280;74567;51.022;5.256;2024-01-30T04:49:58;102356.53;;;7.99;83.44
84378;BME280;74567;51.022;5.256;2024-01-30T04:52:23;102371.41;;;8.08;83.49
84378;BME280;74567;51.022;5.256;2024-01-30T04:54:49;102338.81;;;7.77;83.63
84378;BME280;74567;51.022;5.256;2024-01-30T04:57:14;102368.34;;;7.81;84.04
84378;BME280;74567;51.022;5.256;2024-01-30T04:59:42;102346.69;;;7.64;85.17
84378;BME280;74567;51.022;5.256;2024-01-30T05:02:07;102346.78;;;7.62;85.10
84378;BME280;74567;51.022;5.256;2024-01-30T05:04:36;102346.22;;;7.56;85.01
84378;BME280;74567;51.022;5.256;2024-01-30T05:07:01;102358.16;;;7.69;85.53
84378;BME280;74567;51.022;5.256;2024-01-30T05:09:30;102366.34;;;7.85;85.36
84378;BME280;74567;51.022;5.256;2024-01-30T05:12:04;102334.13;;;7.80;84.93
84378;BME280;74567;51.022;5.256;2024-01-30T05:14:33;102367.28;;;8.01;84.70
84378;BME280;74567;51.022;5.256;2024-01-30T05:17:09;102378.63;;;8.25;84.25
84378;BME280;74567;51.022;5.256;2024-01-30T05:19:35;102325.44;;;8.07;83.84
84378;BME280;74567;51.022;5.256;2024-01-30T05:22:01;102354.88;;;8.30;83.53
84378;BME280;74567;51.022;5.256;2024-01-30T05:24:29;102335.91;;;8.30;83.01
84378;BME280;74567;51.022;5.256;2024-01-30T05:26:54;102330.19;;;8.36;83.05
84378;BME280;74567;51.022;5.256;2024-01-30T05:29:20;102365.59;;;8.49;83.33
84378;BME280;74567;51.022;5.256;2024-01-30T05:31:45;102352.97;;;8.32;83.48
84378;BME280;74567;51.022;5.256;2024-01-30T05:34:11;102368.66;;;8.25;83.87
84378;BME280;74567;51.022;5.256;2024-01-30T05:36:39;102372.44;;;8.23;84.07
84378;BME280;74567;51.022;5.256;2024-01-30T05:39:08;102322.47;;;7.95;84.52
84378;BME280;74567;51.022;5.256;2024-01-30T05:41:33;102365.50;;;8.17;84.81
84378;BME280;74567;51.022;5.256;2024-01-30T05:44:04;102382.81;;;8.31;84.42
84378;BME280;74567;51.022;5.256;2024-01-30T05:46:30;102350.28;;;8.15;84.51
84378;BME280;74567;51.022;5.256;2024-01-30T05:48:58;102315.59;;;8.06;84.16
84378;BME280;74567;51.022;5.256;2024-01-30T05:51:44;102374.94;;;8.43;84.00
84378;BME280;74567;51.022;5.256;2024-01-30T05:54:10;102322.25;;;8.16;84.03
84378;BME280;74567;51.022;5.256;2024-01-30T05:56:42;102316.84;;;8.16;83.72
84378;BME280;74567;51.022;5.256;2024-01-30T05:59:10;102310.03;;;8.09;83.94
84378;BME280;74567;51.022;5.256;2024-01-30T06:01:35;102341.56;;;8.25;84.18
84378;BME280;74567;51.022;5.256;2024-01-30T06:04:04;102310.97;;;8.08;84.12
84378;BME280;74567;51.022;5.256;2024-01-30T06:06:37;102333.63;;;8.22;84.10
84378;BME280;74567;51.022;5.256;2024-01-30T06:09:05;102329.09;;;8.23;84.13
84378;BME280;74567;51.022;5.256;2024-01-30T06:11:33;102329.72;;;8.28;83.92
84378;BME280;74567;51.022;5.256;2024-01-30T06:13:59;102383.09;;;8.59;83.67
84378;BME280;74567;51.022;5.256;2024-01-30T06:16:24;102382.06;;;8.62;83.70
84378;BME280;74567;51.022;5.256;2024-01-30T06:18:50;102363.34;;;8.57;83.54
84378;BME280;74567;51.022;5.256;2024-01-30T06:34:51;102356.34;;;8.69;83.43
84378;BME280;74567;51.022;5.256;2024-01-30T06:37:17;102330.47;;;8.63;83.11
84378;BME280;74567;51.022;5.256;2024-01-30T06:39:42;102382.50;;;9.01;83.06
84378;BME280;74567;51.022;5.256;2024-01-30T06:42:10;102355.06;;;8.92;82.68
84378;BME280;74567;51.022;5.256;2024-01-30T06:44:37;102391.00;;;9.11;83.04
84378;BME280;74567;51.022;5.256;2024-01-30T06:47:11;102318.41;;;8.85;82.28
84378;BME280;74567;51.022;5.256;2024-01-30T06:49:39;102324.63;;;8.87;82.62
84378;BME280;74567;51.022;5.256;2024-01-30T06:52:10;102391.94;;;9.26;82.27
84378;BME280;74567;51.022;5.256;2024-01-30T06:54:36;102360.72;;;9.03;82.26
84378;BME280;74567;51.022;5.256;2024-01-30T06:57:08;102357.94;;;9.05;82.21
84378;BME280;74567;51.022;5.256;2024-01-30T06:59:37;102362.13;;;9.10;81.90
84378;BME280;74567;51.022;5.256;2024-01-30T07:02:02;102349.19;;;8.99;82.27
84378;BME280;74567;51.022;5.256;2024-01-30T07:04:28;102350.75;;;9.04;82.04
84378;BME280;74567;51.022;5.256;2024-01-30T07:06:53;102360.66;;;9.05;82.35
84378;BME280;74567;51.022;5.256;2024-01-30T07:09:19;102366.25;;;9.01;81.96
84378;BME280;74567;51.022;5.256;2024-01-30T07:12:18;102382.97;;;9.10;82.37
84378;BME280;74567;51.022;5.256;2024-01-30T07:14:44;102405.06;;;9.18;82.41
84378;BME280;74567;51.022;5.256;2024-01-30T07:17:18;102430.91;;;9.25;82.55
84378;BME280;74567;51.022;5.256;2024-01-30T07:19:47;102363.28;;;8.90;82.64
84378;BME280;74567;51.022;5.256;2024-01-30T07:22:21;102438.06;;;9.26;82.33
84378;BME280;74567;51.022;5.256;2024-01-30T07:24:50;102382.25;;;8.90;82.74
84378;BME280;74567;51.022;5.256;2024-01-30T07:27:33;102388.47;;;8.92;82.58
84378;BME280;74567;51.022;5.256;2024-01-30T07:30:02;102450.84;;;9.24;82.64
84378;BME280;74567;51.022;5.256;2024-01-30T07:32:27;102393.44;;;8.84;82.94
84378;BME280;74567;51.022;5.256;2024-01-30T07:34:56;102399.41;;;8.91;82.95
84378;BME280;74567;51.022;5.256;2024-01-30T07:37:29;102403.75;;;8.93;82.82
84378;BME280;74567;51.022;5.256;2024-01-30T07:40:01;102435.97;;;9.15;82.57
84378;BME280;74567;51.022;5.256;2024-01-30T07:42:44;102468.34;;;9.34;82.44
84378;BME280;74567;51.022;5.256;2024-01-30T07:45:13;102447.53;;;9.19;82.30
84378;BME280;74567;51.022;5.256;2024-01-30T07:47:38;102433.53;;;9.11;82.62
84378;BME280;74567;51.022;5.256;2024-01-30T07:50:04;102479.38;;;9.31;82.55
84378;BME280;74567;51.022;5.256;2024-01-30T07:52:31;102413.63;;;8.94;82.48
84378;BME280;74567;51.022;5.256;2024-01-30T07:54:57;102491.19;;;9.30;82.88
84378;BME280;74567;51.022;5.256;2024-01-30T07:57:32;102496.63;;;9.30;82.91
84378;BME280;74567;51.022;5.256;2024-01-30T08:00:00;102499.44;;;9.29;82.79
84378;BME280;74567;51.022;5.256;2024-01-30T08:02:26;102461.41;;;9.13;82.66
84378;BME280;74567;51.022;5.256;2024-01-30T08:04:52;102498.00;;;9.37;82.59
84378;BME280;74567;51.022;5.256;2024-01-30T08:07:22;102484.19;;;9.26;82.23
84378;BME280;74567;51.022;5.256;2024-01-30T08:10:02;102467.47;;;9.18;82.33
84378;BME280;74567;51.022;5.256;2024-01-30T08:12:31;102476.41;;;9.20;82.27
84378;BME280;74567;51.022;5.256;2024-01-30T08:15:06;102489.44;;;9.29;82.07
84378;BME280;74567;51.022;5.256;2024-01-30T08:17:34;102467.91;;;9.10;82.35
84378;BME280;74567;51.022;5.256;2024-01-30T08:20:05;102458.53;;;9.16;82.27
84378;BME280;74567;51.022;5.256;2024-01-30T08:22:35;102460.47;;;9.14;82.19
84378;BME280;74567;51.022;5.256;2024-01-30T08:25:00;102490.22;;;9.31;81.96
84378;BME280;74567;51.022;5.256;2024-01-30T08:27:32;102471.41;;;9.28;82.11
84378;BME280;74567;51.022;5.256;2024-01-30T08:30:11;102472.97;;;9.32;81.70
84378;BME280;74567;51.022;5.256;2024-01-30T08:32:43;102473.69;;;9.36;81.78
84378;BME280;74567;51.022;5.256;2024-01-30T08:35:14;102466.06;;;9.42;81.84
84378;BME280;74567;51.022;5.256;2024-01-30T08:37:44;102469.66;;;9.59;81.76
84378;BME280;74567;51.022;5.256;2024-01-30T08:40:10;102453.34;;;9.59;81.20
84378;BME280;74567;51.022;5.256;2024-01-30T08:42:38;102471.09;;;9.80;80.72
84378;BME280;74567;51.022;5.256;2024-01-30T08:45:04;102488.50;;;9.92;80.90
84378;BME280;74567;51.022;5.256;2024-01-30T08:47:50;102510.97;;;10.10;80.22
84378;BME280;74567;51.022;5.256;2024-01-30T08:50:18;102510.28;;;10.06;80.04
84378;BME280;74567;51.022;5.256;2024-01-30T08:52:44;102453.06;;;9.79;80.09
84378;BME280;74567;51.022;5.256;2024-01-30T08:55:09;102503.19;;;10.03;80.27
84378;BME280;74567;51.022;5.256;2024-01-30T08:57:35;102479.66;;;9.88;80.29
84378;BME280;74567;51.022;5.256;2024-01-30T09:00:00;102471.69;;;9.85;80.62
84378;BME280;74567;51.022;5.256;2024-01-30T09:02:29;102476.94;;;9.88;80.38
84378;BME280;74567;51.022;5.256;2024-01-30T09:04:58;102510.97;;;10.10;80.28
84378;BME280;74567;51.022;5.256;2024-01-30T09:07:23;102484.16;;;10.03;80.10
84378;BME280;74567;51.022;5.256;2024-01-30T09:09:49;102498.53;;;10.05;80.06
84378;BME280;74567;51.022;5.256;2024-01-30T09:12:18;102474.72;;;9.95;80.02
84378;BME280;74567;51.022;5.256;2024-01-30T09:14:43;102506.50;;;10.09;80.14
84378;BME280;74567;51.022;5.256;2024-01-30T09:17:09;102486.28;;;9.98;80.34
84378;BME280;74567;51.022;5.256;2024-01-30T09:19:34;102468.63;;;9.91;80.75
84378;BME280;74567;51.022;5.256;2024-01-30T09:22:03;102530.06;;;10.24;80.48
84378;BME280;74567;51.022;5.256;2024-01-30T09:24:34;102497.75;;;10.03;80.52
84378;BME280;74567;51.022;5.256;2024-01-30T09:27:07;102519.72;;;10.15;80.80
84378;BME280;74567;51.022;5.256;2024-01-30T09:29:32;102513.09;;;10.04;80.36
84378;BME280;74567;51.022;5.256;2024-01-30T09:32:02;102485.78;;;9.92;80.40
84378;BME280;74567;51.022;5.256;2024-01-30T09:34:29;102496.19;;;9.99;80.36
84378;BME280;74567;51.022;5.256;2024-01-30T09:36:54;102483.47;;;10.00;80.08
84378;BME280;74567;51.022;5.256;2024-01-30T09:39:22;102504.38;;;10.14;80.40
84378;BME280;74567;51.022;5.256;2024-01-30T09:44:58;102536.34;;;10.40;80.13
84378;BME280;74567;51.022;5.256;2024-01-30T09:47:26;102504.63;;;10.25;80.25
84378;BME280;74567;51.022;5.256;2024-01-30T09:49:52;102528.41;;;10.51;79.60
84378;BME280;74567;51.022;5.256;2024-01-30T09:52:30;102492.47;;;10.46;79.30
84378;BME280;74567;51.022;5.256;2024-01-30T09:55:01;102500.81;;;10.58;79.10
84378;BME280;74567;51.022;5.256;2024-01-30T09:57:31;102506.28;;;10.72;78.97
84378;BME280;74567;51.022;5.256;2024-01-30T09:59:59;102517.47;;;10.81;79.37
84378;BME280;74567;51.022;5.256;2024-01-30T10:02:25;102496.78;;;10.79;78.55
84378;BME280;74567;51.022;5.256;2024-01-30T10:04:56;102491.41;;;10.77;78.57
84378;BME280;74567;51.022;5.256;2024-01-30T10:07:25;102493.50;;;10.88;78.38
84378;BME280;74567;51.022;5.256;2024-01-30T10:09:52;102532.34;;;11.04;78.59
84378;BME280;74567;51.022;5.256;2024-01-30T10:12:20;102544.38;;;11.15;78.71
84378;BME280;74567;51.022;5.256;2024-01-30T10:14:56;102529.78;;;11.16;78.63
84378;BME280;74567;51.022;5.256;2024-01-30T10:17:24;102492.88;;;10.97;78.61
84378;BME280;74567;51.022;5.256;2024-01-30T10:19:50;102500.09;;;10.98;78.27
84378;BME280;74567;51.022;5.256;2024-01-30T10:22:16;102514.56;;;11.13;78.68
84378;BME280;74567;51.022;5.256;2024-01-30T10:24:42;102505.81;;;11.08;79.24
84378;BME280;74567;51.022;5.256;2024-01-30T10:27:29;102503.56;;;11.00;79.28
84378;BME280;74567;51.022;5.256;2024-01-30T10:29:55;102494.81;;;10.95;79.04
84378;BME280;74567;51.022;5.256;2024-01-30T10:32:21;102519.19;;;11.11;79.50
84378;BME280;74567;51.022;5.256;2024-01-30T10:34:47;102553.41;;;11.29;79.16
84378;BME280;74567;51.022;5.256;2024-01-30T10:37:15;102529.22;;;11.25;79.38
84378;BME280;74567;51.022;5.256;2024-01-30T10:39:45;102522.78;;;11.26;79.39
84378;BME280;74567;51.022;5.256;2024-01-30T10:42:13;102563.13;;;11.48;79.51
84378;BME280;74567;51.022;5.256;2024-01-30T10:45:13;102556.56;;;11.50;79.44
84378;BME280;74567;51.022;5.256;2024-01-30T10:47:55;102524.94;;;11.21;78.92
84378;BME280;74567;51.022;5.256;2024-01-30T10:50:27;102522.72;;;11.13;79.32
84378;BME280;74567;51.022;5.256;2024-01-30T10:52:56;102516.19;;;11.01;80.20
84378;BME280;74567;51.022;5.256;2024-01-30T10:55:29;102556.72;;;11.20;79.91
84378;BME280;74567;51.022;5.256;2024-01-30T10:57:55;102517.69;;;10.93;80.34
84378;BME280;74567;51.022;5.256;2024-01-30T11:00:23;102580.03;;;11.24;80.13
84378;BME280;74567;51.022;5.256;2024-01-30T11:02:49;102585.19;;;11.29;80.43
84378;BME280;74567;51.022;5.256;2024-01-30T11:05:24;102568.41;;;11.08;80.57
84378;BME280;74567;51.022;5.256;2024-01-30T11:07:51;102570.81;;;11.27;80.49
84378;BME280;74567;51.022;5.256;2024-01-30T11:10:20;102578.41;;;11.22;80.89
84378;BME280;74567;51.022;5.256;2024-01-30T11:12:48;102551.19;;;11.07;81.13
84378;BME280;74567;51.022;5.256;2024-01-30T11:15:17;102565.38;;;11.27;81.21
84378;BME280;74567;51.022;5.256;2024-01-30T11:20:25;102582.19;;;11.48;80.16
84378;BME280;74567;51.022;5.256;2024-01-30T11:22:52;102557.78;;;11.32;80.43
84378;BME280;74567;51.022;5.256;2024-01-30T11:25:27;102553.88;;;11.36;80.45
84378;BME280;74567;51.022;5.256;2024-01-30T11:27:54;102563.97;;;11.48;80.45
84378;BME280;74567;51.022;5.256;2024-01-30T11:30:35;102575.84;;;11.62;80.60
84378;BME280;74567;51.022;5.256;2024-01-30T11:33:08;102566.66;;;11.77;80.11
84378;BME280;74567;51.022;5.256;2024-01-30T11:35:40;102567.63;;;11.76;79.98
84378;BME280;74567;51.022;5.256;2024-01-30T11:38:10;102538.31;;;11.52;79.97
84378;BME280;74567;51.022;5.256;2024-01-30T11:40:41;102510.53;;;11.33;79.99
84378;BME280;74567;51.022;5.256;2024-01-30T11:43:08;102517.31;;;11.40;79.88
84378;BME280;74567;51.022;5.256;2024-01-30T11:45:35;102516.53;;;11.52;80.41
84378;BME280;74567;51.022;5.256;2024-01-30T11:48:01;102511.00;;;11.40;80.48
84378;BME280;74567;51.022;5.256;2024-01-30T11:50:31;102561.66;;;11.56;80.47
84378;BME280;74567;51.022;5.256;2024-01-30T11:53:03;102501.13;;;11.24;80.43
84378;BME280;74567;51.022;5.256;2024-01-30T11:55:33;102511.13;;;11.24;80.80
84378;BME280;74567;51.022;5.256;2024-01-30T11:57:58;102525.78;;;11.36;80.78
84378;BME280;74567;51.022;5.256;2024-01-30T12:00:24;102521.06;;;11.11;80.93
84378;BME280;74567;51.022;5.256;2024-01-30T12:02:56;102498.31;;;10.97;81.14
84378;BME280;74567;51.022;5.256;2024-01-30T12:05:23;102520.06;;;10.97;81.55
84378;BME280;74567;51.022;5.256;2024-01-30T12:07:51;102520.28;;;10.94;81.62
84378;BME280;74567;51.022;5.256;2024-01-30T12:10:21;102513.47;;;10.87;81.06
84378;BME280;74567;51.022;5.256;2024-01-30T12:12:47;102516.59;;;10.81;81.58
84378;BME280;74567;51.022;5.256;2024-01-30T12:15:23;102545.34;;;10.99;81.74
84378;BME280;74567;51.022;5.256;2024-01-30T12:17:49;102575.00;;;11.04;80.74
84378;BME280;74567;51.022;5.256;2024-01-30T12:20:20;102556.63;;;10.93;80.38
84378;BME280;74567;51.022;5.256;2024-01-30T12:22:48;102549.69;;;10.88;79.75
84378;BME280;74567;51.022;5.256;2024-01-30T12:25:14;102574.50;;;11.12;79.06
84378;BME280;74567;51.022;5.256;2024-01-30T12:27:43;102543.09;;;10.92;78.67
84378;BME280;74567;51.022;5.256;2024-01-30T12:30:13;102584.91;;;11.19;77.84
84378;BME280;74567;51.022;5.256;2024-01-30T12:32:41;102547.09;;;11.00;77.54
84378;BME280;74567;51.022;5.256;2024-01-30T12:35:14;102558.09;;;11.13;77.60
84378;BME280;74567;51.022;5.256;2024-01-30T12:37:44;102586.34;;;11.25;76.56
84378;BME280;74567;51.022;5.256;2024-01-30T12:40:14;102559.34;;;11.07;76.69
84378;BME280;74567;51.022;5.256;2024-01-30T12:42:46;102550.97;;;10.96;75.88
84378;BME280;74567;51.022;5.256;2024-01-30T12:45:18;102554.84;;;10.92;75.22
84378;BME280;74567;51.022;5.256;2024-01-30T12:47:47;102598.41;;;11.21;74.51
84378;BME280;74567;51.022;5.256;2024-01-30T12:50:16;102573.53;;;10.98;74.45
84378;BME280;74567;51.022;5.256;2024-01-30T12:52:46;102555.53;;;10.96;75.19
84378;BME280;74567;51.022;5.256;2024-01-30T12:55:18;102583.63;;;11.11;73.66
84378;BME280;74567;51.022;5.256;2024-01-30T12:57:43;102575.00;;;11.04;73.43
84378;BME280;74567;51.022;5.256;2024-01-30T13:00:09;102622.53;;;11.41;72.90
84378;BME280;74567;51.022;5.256;2024-01-30T13:02:35;102603.28;;;11.44;73.25
84378;BME280;74567;51.022;5.256;2024-01-30T13:05:05;102615.03;;;11.59;72.80
84378;BME280;74567;51.022;5.256;2024-01-30T13:07:34;102578.63;;;11.60;73.00
84378;BME280;74567;51.022;5.256;2024-01-30T13:10:08;102580.13;;;11.51;71.11
84378;BME280;74567;51.022;5.256;2024-01-30T13:12:37;102565.38;;;11.41;70.56
84378;BME280;74567;51.022;5.256;2024-01-30T13:15:17;102628.34;;;11.64;70.33
84378;BME280;74567;51.022;5.256;2024-01-30T13:17:43;102611.56;;;11.98;67.62
84378;BME280;74567;51.022;5.256;2024-01-30T13:20:13;102601.22;;;11.62;67.03
84378;BME280;74567;51.022;5.256;2024-01-30T13:22:42;102623.78;;;12.20;65.10
84378;BME280;74567;51.022;5.256;2024-01-30T13:25:13;102630.81;;;12.64;63.12
84378;BME280;74567;51.022;5.256;2024-01-30T13:27:49;102619.50;;;13.08;60.29